Time;durP1;ratioP1;P1;durP2;ratioP2;P2;SDS_P1;SDS_P2;PMS_P1;PMS_P2;Temp;Humidity;BMP_temperature;BMP_pressure;BME280_temperature;BME280_humidity;BME280_pressure;Samples;Min_cycle;Max_cycle;Signal;HPM_P1;HPM_P2
2020/12/16 00:01:18;;;;;;;29.35;15.20;;;;;;;3.84;69.91;101597.86;1752528;79;21454;-58
2020/12/16 00:03:46;;;;;;;22.22;12.40;;;;;;;3.92;69.80;101598.47;1764049;79;21132;-58
2020/12/16 00:06:16;;;;;;;23.47;13.48;;;;;;;4.02;69.85;101601.62;1756853;79;21128;-58
2020/12/16 00:08:43;;;;;;;29.18;14.35;;;;;;;4.08;69.73;101609.21;1750809;79;21157;-59
2020/12/16 00:11:11;;;;;;;38.20;16.30;;;;;;;4.06;69.59;101608.42;1699376;83;21203;-59
2020/12/16 00:13:39;;;;;;;31.37;16.23;;;;;;;4.00;69.66;101609.91;1763214;80;21662;-58
2020/12/16 00:16:08;;;;;;;29.35;15.78;;;;;;;4.00;69.90;101610.79;1748988;80;21718;-58
2020/12/16 00:18:36;;;;;;;36.00;16.95;;;;;;;4.00;69.94;101613.39;1705643;82;21629;-58
2020/12/16 00:21:04;;;;;;;37.65;17.00;;;;;;;3.94;69.87;101609.67;1760162;79;21188;-58
2020/12/16 00:23:32;;;;;;;41.77;17.82;;;;;;;3.89;69.92;101616.33;1749511;80;21172;-59
2020/12/16 00:25:59;;;;;;;25.25;15.40;;;;;;;3.83;70.06;101615.25;1759506;79;22364;-58
2020/12/16 00:28:27;;;;;;;38.20;16.10;;;;;;;3.86;70.02;101612.98;1701437;83;21332;-58
2020/12/16 00:30:54;;;;;;;29.82;15.88;;;;;;;3.95;69.79;101612.70;1743052;82;21928;-58
2020/12/16 00:33:23;;;;;;;31.80;17.48;;;;;;;4.02;69.77;101610.73;1699557;82;21773;-58
2020/12/16 00:35:50;;;;;;;29.37;17.55;;;;;;;4.07;69.70;101614.05;1769094;79;21116;-58
2020/12/16 00:38:18;;;;;;;34.60;17.35;;;;;;;4.06;69.68;101614.94;1755702;80;21665;-58
2020/12/16 00:40:46;;;;;;;34.03;15.70;;;;;;;4.05;69.77;101614.52;1759662;80;21441;-58
2020/12/16 00:43:13;;;;;;;30.30;15.28;;;;;;;4.05;69.78;101611.91;1699168;82;22622;-58
2020/12/16 00:45:41;;;;;;;28.15;14.87;;;;;;;4.02;69.76;101606.83;1745512;80;21598;-58
2020/12/16 00:48:08;;;;;;;29.80;14.53;;;;;;;3.99;69.79;101605.16;1768567;80;21595;-58
2020/12/16 00:50:36;;;;;;;28.65;13.55;;;;;;;3.91;69.67;101602.80;1777716;79;21651;-58
2020/12/16 00:53:06;;;;;;;27.60;14.83;;;;;;;3.84;69.82;101604.38;1700261;83;21319;-59
2020/12/16 00:55:36;;;;;;;25.43;12.95;;;;;;;3.81;69.81;101606.61;1761902;79;21196;-58
2020/12/16 00:58:03;;;;;;;20.70;12.03;;;;;;;3.85;69.67;101601.72;1746986;80;21141;-58
2020/12/16 01:00:33;;;;;;;25.00;13.48;;;;;;;3.88;69.63;101599.02;1765071;79;21220;-58
2020/12/16 01:03:02;;;;;;;24.65;13.10;;;;;;;3.90;69.63;101602.42;1756360;80;21213;-58
2020/12/16 01:05:31;;;;;;;30.35;14.35;;;;;;;3.85;69.79;101597.81;1693806;82;21213;-58
2020/12/16 01:07:59;;;;;;;25.88;13.72;;;;;;;3.86;69.82;101598.20;1770283;80;21567;-58
2020/12/16 01:10:27;;;;;;;29.20;15.08;;;;;;;3.83;69.89;101595.72;1697495;84;21555;-58
2020/12/16 01:12:54;;;;;;;32.93;14.73;;;;;;;3.84;70.10;101596.09;1759085;80;21599;-58
2020/12/16 01:15:24;;;;;;;26.40;14.38;;;;;;;3.83;70.09;101597.02;1756121;80;21764;-58
2020/12/16 01:17:53;;;;;;;27.10;15.38;;;;;;;3.82;70.07;101597.06;1755428;80;21402;-58
2020/12/16 01:20:23;;;;;;;30.17;13.75;;;;;;;3.74;69.94;101599.91;1762876;79;21252;-58
2020/12/16 01:22:52;;;;;;;30.23;15.15;;;;;;;3.75;69.99;101589.03;1766648;80;21133;-58
2020/12/16 01:25:21;;;;;;;21.85;12.80;;;;;;;3.83;69.90;101586.60;1689615;82;21211;-58
2020/12/16 01:27:59;;;;;;;26.82;13.43;;;;;;;3.94;69.79;101591.91;1738151;80;21180;-58
2020/12/16 01:30:27;;;;;;;27.32;12.53;;;;;;;3.96;69.66;101582.28;1763464;80;21369;-58
2020/12/16 01:32:56;;;;;;;26.73;14.15;;;;;;;3.95;69.67;101584.47;1767957;80;21612;-58
2020/12/16 01:35:25;;;;;;;27.15;14.95;;;;;;;3.94;69.70;101578.42;1705033;82;21146;-58
2020/12/16 01:37:53;;;;;;;29.92;15.23;;;;;;;3.93;69.64;101577.17;1770594;80;21168;-58
2020/12/16 01:40:22;;;;;;;24.45;13.05;;;;;;;3.88;69.56;101577.31;1763203;80;21169;-58
2020/12/16 01:43:17;;;;;;;37.42;14.47;;;;;;;3.82;69.63;101573.17;1753599;79;23712;-59
2020/12/16 01:45:45;;;;;;;34.18;13.95;;;;;;;3.72;69.69;101575.67;1724829;82;21172;-59
2020/12/16 01:48:15;;;;;;;23.22;13.13;;;;;;;3.64;69.79;101569.41;1720209;82;21250;-59
2020/12/16 01:50:43;;;;;;;25.15;12.82;;;;;;;3.65;69.80;101576.33;1726718;82;21428;-59
2020/12/16 01:53:13;;;;;;;19.77;12.82;;;;;;;3.74;69.56;101571.27;1717620;82;21077;-57
2020/12/16 01:55:42;;;;;;;25.10;13.53;;;;;;;3.81;69.45;101570.16;1710243;82;21180;-58
2020/12/16 01:58:12;;;;;;;24.27;12.95;;;;;;;3.86;69.36;101563.05;1736725;82;21228;-57
2020/12/16 02:00:39;;;;;;;25.68;12.93;;;;;;;3.86;69.33;101566.11;1706521;81;22445;-58
2020/12/16 02:03:09;;;;;;;23.38;13.60;;;;;;;3.82;69.32;101569.27;1724230;82;21140;-58
2020/12/16 02:16:40;;;;;;;31.02;15.28;;;;;;;3.44;70.19;101551.81;1825385;77;22365;-58
2020/12/16 02:19:10;;;;;;;23.57;14.60;;;;;;;3.33;70.26;101556.53;1784255;79;21170;-58
2020/12/16 02:21:48;;;;;;;23.20;12.88;;;;;;;3.29;70.34;101553.14;1823167;76;23241;-57
2020/12/16 02:24:16;;;;;;;26.50;14.95;;;;;;;3.29;70.33;101554.45;1813736;78;21124;-59
2020/12/16 02:26:44;;;;;;;24.77;13.85;;;;;;;3.41;70.17;101555.81;1813898;78;21355;-59
2020/12/16 02:29:12;;;;;;;27.27;13.55;;;;;;;3.50;70.12;101556.84;1804895;79;21539;-58
2020/12/16 02:31:40;;;;;;;26.55;13.53;;;;;;;3.60;70.07;101559.13;1763006;80;21167;-57
2020/12/16 02:45:11;;;;;;;32.98;15.00;;;;;;;3.43;70.43;101544.93;1752907;78;25163;-57
2020/12/16 02:47:41;;;;;;;29.20;14.38;;;;;;;3.33;70.53;101548.27;1752257;79;21115;-58
2020/12/16 02:50:10;;;;;;;24.65;12.63;;;;;;;3.33;70.49;101551.33;1753776;80;21417;-58
2020/12/16 02:52:39;;;;;;;17.00;11.70;;;;;;;3.30;70.46;101550.95;1756741;80;21216;-58
2020/12/16 02:55:17;;;;;;;23.00;11.78;;;;;;;3.37;70.37;101543.81;1869108;76;22678;-59
2020/12/16 02:57:52;;;;;;;20.82;11.08;;;;;;;3.42;70.23;101542.37;1852876;77;21567;-59
2020/12/16 03:00:21;;;;;;;23.47;11.68;;;;;;;3.48;70.03;101541.73;1782742;80;21452;-59
2020/12/16 03:03:09;;;;;;;18.80;9.90;;;;;;;3.59;70.06;101545.28;1832643;76;22728;-59
2020/12/16 03:05:39;;;;;;;19.82;11.05;;;;;;;3.59;70.01;101549.18;1794123;79;21124;-57
2020/12/16 03:08:10;;;;;;;21.50;10.90;;;;;;;3.56;69.91;101541.92;1806917;79;21368;-57
2020/12/16 03:10:40;;;;;;;22.20;11.48;;;;;;;3.56;69.91;101544.53;1785610;79;21131;-58
2020/12/16 03:13:08;;;;;;;23.20;11.40;;;;;;;3.52;69.92;101545.08;1786458;78;21195;-58
2020/12/16 03:15:37;;;;;;;21.90;10.98;;;;;;;3.52;70.00;101542.48;1796144;79;20962;-58
2020/12/16 03:18:06;;;;;;;16.70;9.90;;;;;;;3.52;69.94;101543.78;1792316;79;21131;-58
2020/12/16 03:20:34;;;;;;;19.57;11.48;;;;;;;3.50;69.91;101545.13;1792477;79;21359;-58
2020/12/16 03:23:02;;;;;;;18.62;11.40;;;;;;;3.45;69.96;101545.72;1800546;77;21167;-58
2020/12/16 03:25:59;;;;;;;18.30;9.93;;;;;;;3.52;69.83;101545.08;1861065;76;23283;-58
2020/12/16 03:28:31;;;;;;;21.23;11.65;;;;;;;3.57;69.69;101547.08;1852283;77;21132;-58
2020/12/16 03:31:17;;;;;;;20.20;11.63;;;;;;;3.62;69.54;101538.67;1787312;79;21200;-59
2020/12/16 03:33:49;;;;;;;22.37;10.35;;;;;;;3.64;69.47;101539.93;1812651;78;21186;-58
2020/12/16 03:36:40;;;;;;;20.52;11.80;;;;;;;3.62;69.68;101538.67;1824466;76;23383;-58
2020/12/16 03:39:09;;;;;;;19.45;11.95;;;;;;;3.57;69.76;101546.24;1809514;78;21144;-58
2020/12/16 03:41:37;;;;;;;13.62;10.13;;;;;;;3.57;69.83;101546.24;1801014;79;21177;-59
2020/12/16 03:44:06;;;;;;;17.02;11.88;;;;;;;3.54;69.84;101542.81;1808030;79;21154;-59
2020/12/16 03:46:36;;;;;;;20.40;13.15;;;;;;;3.55;69.78;101547.59;1808246;79;21591;-58
2020/12/16 03:49:05;;;;;;;20.37;12.03;;;;;;;3.51;69.71;101545.97;1797333;78;21583;-58
2020/12/16 03:51:34;;;;;;;16.40;10.25;;;;;;;3.44;69.83;101550.98;1809347;77;21749;-58
2020/12/16 03:54:03;;;;;;;16.48;10.63;;;;;;;3.45;69.82;101554.83;1806291;79;21220;-58
2020/12/16 03:56:42;;;;;;;22.40;11.30;;;;;;;3.55;69.69;101551.49;1793593;79;21025;-58
2020/12/16 03:59:28;;;;;;;18.35;10.90;;;;;;;3.68;69.55;101554.53;1873075;74;22665;-59
2020/12/16 04:02:15;;;;;;;29.95;16.85;;;;;;;3.72;69.46;101556.16;1783905;79;28604;-59
2020/12/16 04:04:44;;;;;;;23.55;12.47;;;;;;;3.86;69.25;101559.59;1758068;80;21175;-59
2020/12/16 04:07:13;;;;;;;19.00;11.85;;;;;;;4.08;68.60;101561.90;1756406;80;21284;-58
2020/12/16 04:09:43;;;;;;;19.62;11.38;;;;;;;4.04;68.54;101563.34;1757009;80;21135;-57
2020/12/16 04:12:11;;;;;;;20.72;10.98;;;;;;;3.96;68.61;101567.96;1762110;80;21036;-55
2020/12/16 04:14:39;;;;;;;27.05;13.65;;;;;;;3.87;68.65;101565.22;1766055;80;21124;-53
2020/12/16 04:17:08;;;;;;;22.95;12.82;;;;;;;3.81;68.79;101571.92;1766373;80;21187;-53
2020/12/16 04:19:40;;;;;;;17.37;11.15;;;;;;;3.73;68.91;101569.55;1764375;80;21177;-52
2020/12/16 04:22:07;;;;;;;27.25;13.08;;;;;;;3.73;68.86;101569.55;1762951;80;21634;-53
2020/12/16 04:24:37;;;;;;;18.42;10.63;;;;;;;3.79;68.71;101570.66;1757183;80;21189;-54
2020/12/16 04:27:09;;;;;;;20.68;12.45;;;;;;;3.84;68.62;101569.22;1753294;80;21571;-53
2020/12/16 04:29:39;;;;;;;20.12;12.15;;;;;;;3.90;68.60;101577.68;1761639;80;21143;-53
2020/12/16 04:32:10;;;;;;;24.50;12.78;;;;;;;3.86;68.60;101583.03;1776531;80;21186;-53
2020/12/16 04:34:40;;;;;;;20.88;11.70;;;;;;;3.82;68.64;101579.68;1754960;80;21150;-54
2020/12/16 04:37:08;;;;;;;20.55;12.05;;;;;;;3.74;68.75;101575.63;1779751;80;21159;-54
2020/12/16 04:39:39;;;;;;;20.57;12.03;;;;;;;3.68;68.95;101576.23;1776506;80;21195;-54
2020/12/16 04:42:07;;;;;;;22.22;11.55;;;;;;;3.66;69.01;101573.27;1755384;80;21535;-54
2020/12/16 04:44:36;;;;;;;20.08;11.83;;;;;;;3.61;69.07;101575.16;1756724;80;21278;-54
2020/12/16 04:47:05;;;;;;;19.77;11.43;;;;;;;3.56;69.11;101575.30;1781552;80;21195;-54
2020/12/16 04:49:34;;;;;;;21.27;11.95;;;;;;;3.48;69.19;101575.56;1764443;80;21112;-54
2020/12/16 04:52:02;;;;;;;21.60;10.20;;;;;;;3.48;69.17;101579.89;1756061;80;21198;-54
2020/12/16 04:54:40;;;;;;;16.57;9.60;;;;;;;3.59;69.09;101579.11;1831090;76;22680;-55
2020/12/16 04:57:09;;;;;;;27.20;11.65;;;;;;;3.64;68.95;101585.02;1808033;79;21128;-55
2020/12/16 04:59:38;;;;;;;22.22;12.05;;;;;;;3.67;68.95;101583.63;1802013;79;21146;-55
2020/12/16 05:13:19;;;;;;;25.90;11.93;;;;;;;3.35;69.62;101579.44;1843721;75;23360;-55
2020/12/16 05:15:54;;;;;;;21.52;13.30;;;;;;;3.27;69.89;101587.92;1883799;75;23287;-56
2020/12/16 05:18:25;;;;;;;23.05;12.45;;;;;;;3.19;69.94;101587.30;1752959;78;21115;-56
2020/12/16 05:21:01;;;;;;;22.62;12.28;;;;;;;3.15;70.07;101595.19;1812640;77;21244;-55
2020/12/16 05:23:31;;;;;;;16.85;10.80;;;;;;;3.19;69.98;101598.55;1809156;78;21586;-56
2020/12/16 05:26:09;;;;;;;21.23;11.22;;;;;;;3.30;69.79;101594.34;1798920;78;21133;-56
2020/12/16 05:28:47;;;;;;;18.55;11.12;;;;;;;3.42;69.62;101587.91;1800916;78;21211;-55
2020/12/16 05:31:16;;;;;;;20.15;11.45;;;;;;;3.47;69.55;101586.86;1815341;77;21197;-56
2020/12/16 05:33:48;;;;;;;19.62;11.65;;;;;;;3.49;69.53;101586.34;1791779;78;21204;-56
2020/12/16 05:36:29;;;;;;;20.27;12.55;;;;;;;3.51;69.47;101588.91;1808600;77;21476;-56
2020/12/16 05:38:58;;;;;;;19.23;12.20;;;;;;;3.50;69.45;101585.46;1818723;77;21218;-56
2020/12/16 05:41:27;;;;;;;23.25;12.45;;;;;;;3.49;69.47;101584.20;1789947;77;21566;-56
2020/12/16 05:44:19;;;;;;;21.07;12.37;;;;;;;3.48;69.42;101587.27;1807729;77;21203;-55
2020/12/16 05:46:50;;;;;;;21.90;11.88;;;;;;;3.45;69.31;101584.76;1793775;78;22169;-56
2020/12/16 05:49:28;;;;;;;20.32;11.90;;;;;;;3.41;69.23;101579.69;1807745;78;21199;-57
2020/12/16 05:52:01;;;;;;;21.97;12.43;;;;;;;3.35;69.32;101580.74;1803566;78;21202;-56
2020/12/16 05:54:32;;;;;;;17.40;11.68;;;;;;;3.40;69.32;101582.75;1762876;79;21191;-55
2020/12/16 05:57:17;;;;;;;19.48;10.98;;;;;;;3.49;69.07;101583.75;1809802;77;21182;-55
2020/12/16 06:00:09;;;;;;;19.75;11.48;;;;;;;3.57;68.83;101583.98;1803576;78;22776;-54
2020/12/16 06:02:45;;;;;;;20.40;10.50;;;;;;;3.59;68.80;101582.17;1809471;77;21160;-53
2020/12/16 06:05:15;;;;;;;21.27;11.95;;;;;;;3.54;68.78;101587.05;1805280;78;21253;-53
2020/12/16 06:07:47;;;;;;;20.60;11.88;;;;;;;3.50;68.89;101585.46;1764146;79;21197;-55
2020/12/16 06:10:15;;;;;;;22.65;12.00;;;;;;;3.49;68.77;101590.72;1795911;78;21678;-55
2020/12/16 06:12:44;;;;;;;20.62;11.50;;;;;;;3.47;68.83;101586.86;1795038;78;23124;-54
2020/12/16 06:15:14;;;;;;;16.97;9.43;;;;;;;3.46;68.69;101596.01;1780507;78;21207;-55
2020/12/16 06:17:46;;;;;;;22.00;11.75;;;;;;;3.44;68.70;101589.55;1766602;79;21239;-54
2020/12/16 06:20:17;;;;;;;20.77;11.43;;;;;;;3.39;68.63;101591.90;1769221;79;21196;-54
2020/12/16 06:22:47;;;;;;;20.88;10.58;;;;;;;3.37;68.64;101593.70;1769535;79;21213;-54
2020/12/16 06:25:17;;;;;;;14.47;9.63;;;;;;;3.39;68.54;101596.64;1772382;79;22307;-55
2020/12/16 06:27:50;;;;;;;18.62;10.68;;;;;;;3.51;68.34;101593.69;1770170;79;21615;-55
2020/12/16 06:30:33;;;;;;;18.30;9.65;;;;;;;3.58;68.18;101599.55;1769502;79;21222;-54
2020/12/16 06:33:08;;;;;;;13.32;8.43;;;;;;;3.61;68.10;101604.63;1786796;78;21235;-54
2020/12/16 06:35:35;;;;;;;20.33;10.30;;;;;;;3.58;67.65;101606.06;1789659;78;21201;-54
2020/12/16 06:38:21;;;;;;;17.57;9.75;;;;;;;3.51;67.85;101601.92;1759427;78;21364;-55
2020/12/16 06:40:56;;;;;;;17.92;9.23;;;;;;;3.46;67.77;101603.39;1788317;78;21270;-54
2020/12/16 06:43:34;;;;;;;15.15;9.88;;;;;;;3.40;67.63;101603.56;1750466;80;21188;-55
2020/12/16 06:46:31;;;;;;;16.40;8.55;;;;;;;3.37;67.73;101606.25;1786757;78;22342;-54
2020/12/16 06:49:16;;;;;;;16.60;9.58;;;;;;;3.36;67.86;101605.84;1821160;76;22745;-55
2020/12/16 06:51:47;;;;;;;17.92;11.70;;;;;;;3.29;67.87;101603.88;1825383;76;21611;-56
2020/12/16 06:54:16;;;;;;;20.08;9.48;;;;;;;3.27;68.09;101606.13;1823218;77;22264;-56
2020/12/16 06:56:46;;;;;;;21.85;10.75;;;;;;;3.33;68.09;101608.10;1824316;77;21966;-55
2020/12/16 06:59:15;;;;;;;17.02;9.85;;;;;;;3.46;67.67;101607.29;1823836;77;21103;-56
2020/12/16 07:01:43;;;;;;;13.48;8.80;;;;;;;3.56;67.49;101616.09;1825663;77;21096;-55
2020/12/16 07:04:12;;;;;;;17.25;9.85;;;;;;;3.65;67.34;101610.63;1821478;76;21517;-57
2020/12/16 07:06:41;;;;;;;16.75;10.85;;;;;;;3.69;67.24;101620.02;1823614;77;21531;-55
2020/12/16 07:09:20;;;;;;;17.00;10.05;;;;;;;3.72;67.13;101616.87;1824471;77;21199;-55
2020/12/16 07:11:54;;;;;;;19.95;10.13;;;;;;;3.72;66.85;101623.84;1825592;77;21084;-55
2020/12/16 07:14:27;;;;;;;16.50;9.10;;;;;;;3.70;66.78;101625.64;1830110;77;21187;-55
2020/12/16 07:17:09;;;;;;;14.35;8.83;;;;;;;3.68;66.62;101628.72;1829541;77;21085;-55
2020/12/16 07:19:36;;;;;;;20.88;10.38;;;;;;;3.64;66.53;101623.22;1826967;77;21526;-55
2020/12/16 07:22:24;;;;;;;14.25;9.70;;;;;;;3.59;66.62;101626.42;1822138;77;21163;-55
2020/12/16 07:24:52;;;;;;;17.25;9.88;;;;;;;3.54;66.47;101620.89;1826324;77;21852;-55
2020/12/16 07:27:21;;;;;;;19.65;10.98;;;;;;;3.49;66.55;101624.08;1797929;76;21172;-55
2020/12/16 07:29:58;;;;;;;14.90;9.18;;;;;;;3.47;66.76;101628.95;1827861;77;21222;-55
2020/12/16 07:32:27;;;;;;;19.48;9.45;;;;;;;3.52;66.31;101624.45;1828907;77;21235;-55
2020/12/16 07:34:59;;;;;;;16.77;8.98;;;;;;;3.63;65.75;101628.89;1825374;77;21148;-56
2020/12/16 07:37:29;;;;;;;15.70;8.65;;;;;;;3.68;65.48;101626.99;1826547;77;21136;-55
2020/12/16 07:39:58;;;;;;;18.35;10.82;;;;;;;3.74;65.06;101628.54;1822663;77;21165;-55
2020/12/16 07:42:29;;;;;;;19.67;11.00;;;;;;;3.73;65.50;101625.52;1831797;76;21208;-55
2020/12/16 07:45:00;;;;;;;16.37;9.03;;;;;;;3.77;65.68;101621.09;1827881;76;21346;-55
2020/12/16 07:47:27;;;;;;;17.77;11.00;;;;;;;3.79;65.82;101620.13;1830066;76;22323;-56
2020/12/16 07:49:55;;;;;;;18.92;11.93;;;;;;;3.83;66.16;101625.66;1830947;76;21140;-55
2020/12/16 07:52:27;;;;;;;16.37;11.50;;;;;;;3.86;66.25;101625.53;1831642;77;21093;-55
2020/12/16 07:54:58;;;;;;;14.10;8.53;;;;;;;3.90;66.32;101624.55;1828225;76;21143;-56
2020/12/16 07:58:12;;;;;;;16.25;9.73;;;;;;;3.94;66.07;101612.28;1872383;75;23200;-56
2020/12/16 08:00:40;;;;;;;16.20;9.85;;;;;;;3.91;65.99;101618.88;1842095;75;21166;-56
2020/12/16 08:03:07;;;;;;;21.85;10.03;;;;;;;3.91;65.90;101620.19;1842317;75;21384;-56
2020/12/16 08:05:36;;;;;;;16.95;9.53;;;;;;;3.89;65.89;101622.84;1842150;76;21537;-56
2020/12/16 08:08:04;;;;;;;17.87;10.05;;;;;;;3.96;65.92;101627.86;1842390;76;21170;-58
2020/12/16 08:10:34;;;;;;;19.95;11.33;;;;;;;4.08;65.64;101625.72;1840077;76;21551;-56
2020/12/16 08:13:01;;;;;;;17.35;10.13;;;;;;;4.16;65.42;101629.34;1840054;76;21167;-56
2020/12/16 08:15:29;;;;;;;15.72;9.93;;;;;;;4.22;65.43;101631.77;1840074;76;22241;-55
2020/12/16 08:17:57;;;;;;;21.07;11.10;;;;;;;4.27;65.31;101633.76;1842528;76;21076;-55
2020/12/16 08:20:25;;;;;;;19.25;10.95;;;;;;;4.32;65.08;101632.31;1834164;76;21152;-55
2020/12/16 08:22:58;;;;;;;26.90;11.85;;;;;;;4.31;65.04;101631.05;1836576;75;21112;-55
2020/12/16 08:25:26;;;;;;;14.87;9.15;;;;;;;4.30;65.07;101630.19;1838033;76;21179;-56
2020/12/16 08:27:56;;;;;;;13.88;9.45;;;;;;;4.26;64.68;101624.23;1838183;75;21191;-56
2020/12/16 08:30:27;;;;;;;15.60;9.73;;;;;;;4.20;64.90;101628.80;1781949;78;21677;-56
2020/12/16 08:33:09;;;;;;;16.52;10.85;;;;;;;4.15;64.98;101617.67;1805442;78;21692;-56
2020/12/16 08:35:58;;;;;;;16.12;8.83;;;;;;;4.11;65.21;101620.84;1780030;78;21195;-56
2020/12/16 08:38:36;;;;;;;11.70;7.80;;;;;;;4.08;65.42;101614.42;1798792;78;21116;-56
2020/12/16 08:41:05;;;;;;;13.78;8.58;;;;;;;4.01;65.47;101609.86;1804899;78;23097;-56
2020/12/16 08:43:37;;;;;;;15.03;8.13;;;;;;;4.03;65.43;101609.81;1786543;79;21509;-56
2020/12/16 08:46:24;;;;;;;11.85;6.90;;;;;;;4.12;65.08;101616.04;1787611;78;21595;-56
2020/12/16 08:49:00;;;;;;;12.55;7.40;;;;;;;4.16;64.88;101611.11;1806636;78;21152;-56
2020/12/16 08:51:35;;;;;;;13.95;6.92;;;;;;;4.14;64.82;101619.90;1784274;78;21215;-55
2020/12/16 08:54:17;;;;;;;26.40;8.33;;;;;;;4.09;64.69;101620.05;1790467;79;21471;-56
2020/12/16 08:56:57;;;;;;;12.25;7.67;;;;;;;4.05;64.90;101616.70;1778310;79;21226;-56
2020/12/16 08:59:29;;;;;;;12.93;7.05;;;;;;;4.03;65.03;101618.94;1767963;80;21108;-55
2020/12/16 09:02:07;;;;;;;14.87;7.12;;;;;;;3.99;65.30;101614.74;1774152;79;21168;-55
2020/12/16 09:04:37;;;;;;;12.13;7.53;;;;;;;3.98;65.20;101614.33;1775932;79;21167;-56
2020/12/16 09:07:15;;;;;;;11.40;6.62;;;;;;;3.98;65.32;101616.47;1772688;79;22045;-56
2020/12/16 09:09:51;;;;;;;10.50;6.35;;;;;;;3.98;65.27;101611.72;1769677;79;21198;-56
2020/12/16 09:12:22;;;;;;;12.25;7.25;;;;;;;3.94;65.15;101614.88;1769766;79;21602;-56
2020/12/16 09:14:58;;;;;;;13.08;7.00;;;;;;;3.88;65.06;101612.47;1768059;80;21207;-56
2020/12/16 09:17:27;;;;;;;14.43;7.05;;;;;;;3.91;65.00;101609.31;1767961;79;21615;-56
2020/12/16 09:19:54;;;;;;;11.65;6.78;;;;;;;3.99;64.89;101608.23;1775774;79;23675;-56
2020/12/16 09:22:29;;;;;;;11.95;6.30;;;;;;;4.07;64.88;101610.13;1770943;79;21551;-56
2020/12/16 09:24:59;;;;;;;10.18;6.10;;;;;;;4.11;64.76;101614.78;1775590;79;21123;-57
2020/12/16 09:27:27;;;;;;;15.58;5.92;;;;;;;4.09;64.42;101608.33;1772645;79;21211;-55
2020/12/16 09:29:55;;;;;;;10.68;6.25;;;;;;;4.03;64.56;101615.03;1763854;79;21734;-55
2020/12/16 09:32:26;;;;;;;11.15;6.55;;;;;;;4.01;64.85;101618.98;1773476;79;21193;-56
2020/12/16 09:34:54;;;;;;;10.13;5.85;;;;;;;3.98;64.80;101615.17;1775038;78;21209;-56
2020/12/16 09:37:36;;;;;;;9.85;5.22;;;;;;;3.96;64.80;101607.02;1776481;79;21180;-56
2020/12/16 09:40:10;;;;;;;11.30;5.95;;;;;;;3.88;64.57;101605.53;1773088;80;21126;-56
2020/12/16 09:42:38;;;;;;;10.03;5.80;;;;;;;3.84;65.03;101607.81;1772506;78;21119;-56
2020/12/16 09:45:12;;;;;;;13.30;5.92;;;;;;;3.78;65.09;101602.80;1767225;80;21214;-56
2020/12/16 09:47:44;;;;;;;11.45;7.10;;;;;;;3.75;65.01;101602.92;1773665;78;21137;-56
2020/12/16 09:50:11;;;;;;;8.53;5.58;;;;;;;3.69;65.14;101603.95;1757330;80;21140;-56
2020/12/16 09:52:39;;;;;;;10.38;4.85;;;;;;;3.72;65.12;101596.50;1760983;80;21639;-55
2020/12/16 09:55:20;;;;;;;12.05;6.53;;;;;;;3.83;65.02;101589.20;1772409;80;21587;-55
2020/12/16 09:58:04;;;;;;;15.48;6.58;;;;;;;3.93;64.69;101590.19;1795709;79;21434;-56
2020/12/16 10:00:34;;;;;;;17.40;7.30;;;;;;;3.91;64.32;101589.78;1804756;79;21963;-56
2020/12/16 10:03:05;;;;;;;14.63;7.92;;;;;;;3.82;64.64;101587.49;1738333;82;21203;-56
2020/12/16 10:05:34;;;;;;;13.30;8.53;;;;;;;3.79;64.63;101589.34;1724384;82;21597;-55
2020/12/16 10:08:03;;;;;;;12.43;8.03;;;;;;;3.73;64.99;101581.27;1761016;80;21194;-56
2020/12/16 10:10:31;;;;;;;13.30;7.17;;;;;;;3.67;64.65;101577.12;1755541;81;21196;-56
2020/12/16 10:12:59;;;;;;;11.43;6.65;;;;;;;3.56;64.81;101579.66;1759394;79;21936;-56
2020/12/16 10:15:26;;;;;;;11.57;7.30;;;;;;;3.44;65.07;101573.94;1760865;80;21191;-56
2020/12/16 10:17:55;;;;;;;11.00;6.22;;;;;;;3.37;65.44;101577.63;1759940;79;21676;-57
2020/12/16 10:20:23;;;;;;;12.25;7.90;;;;;;;3.29;65.43;101571.35;1735730;80;21198;-55
2020/12/16 10:22:50;;;;;;;12.47;7.42;;;;;;;3.24;65.71;101575.00;1804133;79;23605;-56
2020/12/16 10:25:18;;;;;;;12.55;7.42;;;;;;;3.34;65.84;101576.42;1796302;79;21179;-55
2020/12/16 10:27:46;;;;;;;10.43;7.20;;;;;;;3.43;65.82;101573.98;1790617;79;21548;-55
2020/12/16 10:30:13;;;;;;;14.87;8.50;;;;;;;3.48;65.84;101572.95;1787788;79;21812;-56
2020/12/16 10:32:41;;;;;;;13.03;7.70;;;;;;;3.49;65.85;101572.03;1798523;77;21108;-55
2020/12/16 10:35:08;;;;;;;15.23;8.70;;;;;;;3.45;65.13;101566.55;1783452;79;23546;-55
2020/12/16 10:37:40;;;;;;;12.70;7.80;;;;;;;3.37;65.38;101565.08;1797873;79;21578;-56
2020/12/16 10:40:09;;;;;;;16.70;10.15;;;;;;;3.31;65.67;101564.80;1738712;81;21633;-55
2020/12/16 10:42:36;;;;;;;17.05;9.43;;;;;;;3.26;65.91;101567.57;1757821;81;21207;-56
2020/12/16 10:45:04;;;;;;;16.35;7.33;;;;;;;3.24;66.14;101568.50;1798942;79;21121;-55
2020/12/16 10:47:32;;;;;;;18.85;9.68;;;;;;;3.22;66.18;101562.50;1800254;79;22107;-55
2020/12/16 10:49:59;;;;;;;18.73;7.87;;;;;;;3.21;66.39;101567.29;1796354;79;21223;-54
2020/12/16 10:52:27;;;;;;;14.30;7.78;;;;;;;3.27;66.33;101560.15;1803983;77;21163;-55
2020/12/16 10:54:55;;;;;;;15.10;8.28;;;;;;;3.38;65.92;101563.73;1799375;79;21852;-55
2020/12/16 10:57:22;;;;;;;12.80;7.72;;;;;;;3.46;66.04;101553.95;1803501;77;21644;-55
2020/12/16 10:59:50;;;;;;;12.13;7.60;;;;;;;3.50;66.16;101557.30;1817389;78;23609;-55
2020/12/16 11:02:17;;;;;;;16.07;9.10;;;;;;;3.46;65.73;101563.05;1787559;79;21922;-56
2020/12/16 11:04:44;;;;;;;16.97;9.58;;;;;;;3.39;65.96;101556.77;1787605;78;21161;-56
2020/12/16 11:07:12;;;;;;;13.93;8.65;;;;;;;3.31;65.92;101561.78;1794265;78;21160;-54
2020/12/16 11:09:39;;;;;;;14.38;9.53;;;;;;;3.24;65.87;101554.20;1784261;79;21175;-54
2020/12/16 11:12:12;;;;;;;14.85;8.55;;;;;;;3.16;66.10;101552.69;1786726;78;21425;-53
2020/12/16 11:14:41;;;;;;;13.35;9.00;;;;;;;3.10;66.45;101560.66;1820465;77;21164;-55
2020/12/16 11:17:19;;;;;;;16.00;8.90;;;;;;;3.16;66.57;101556.59;1781673;79;21197;-57
2020/12/16 11:19:47;;;;;;;15.45;8.93;;;;;;;3.28;66.43;101551.92;1787098;78;21120;-54
2020/12/16 11:22:14;;;;;;;16.50;10.05;;;;;;;3.31;66.19;101551.37;1783637;80;21422;-55
2020/12/16 11:24:41;;;;;;;20.17;10.05;;;;;;;3.27;66.04;101552.80;1781160;79;23592;-55
2020/12/16 11:27:09;;;;;;;14.47;8.90;;;;;;;3.21;66.38;101538.67;1773910;80;21144;-57
2020/12/16 11:29:36;;;;;;;14.43;8.90;;;;;;;3.15;66.30;101534.06;1793128;78;21164;-56
2020/12/16 11:32:04;;;;;;;18.90;11.43;;;;;;;3.07;66.48;101545.15;1781119;79;21741;-56
2020/12/16 11:34:32;;;;;;;15.15;8.78;;;;;;;2.99;66.58;101539.32;1771879;80;21238;-55
2020/12/16 11:37:01;;;;;;;13.32;9.03;;;;;;;2.91;66.73;101536.97;1813238;78;21560;-56
2020/12/16 11:39:29;;;;;;;15.90;9.38;;;;;;;2.87;66.99;101531.89;1800309;77;21222;-56
2020/12/16 11:41:57;;;;;;;14.40;9.15;;;;;;;2.90;66.94;101533.95;1816795;77;21430;-56
2020/12/16 11:44:25;;;;;;;16.60;10.75;;;;;;;2.99;66.77;101530.22;1812618;77;21683;-56
2020/12/16 11:46:53;;;;;;;19.65;9.48;;;;;;;3.01;66.79;101528.45;1802856;77;21148;-56
2020/12/16 11:49:21;;;;;;;16.35;10.00;;;;;;;2.99;67.02;101527.62;1803114;77;21363;-55
2020/12/16 11:51:50;;;;;;;16.97;10.18;;;;;;;2.98;67.24;101530.68;1801984;77;22562;-55
2020/12/16 11:54:19;;;;;;;15.78;9.55;;;;;;;2.98;67.20;101535.03;1797743;77;21650;-55
2020/12/16 11:56:47;;;;;;;16.85;8.70;;;;;;;2.95;67.27;101538.56;1779467;78;21374;-55
2020/12/16 11:59:16;;;;;;;13.88;8.65;;;;;;;2.94;67.46;101534.70;1785409;78;21171;-56
2020/12/16 12:01:43;;;;;;;13.65;8.98;;;;;;;2.91;67.47;101531.77;1774634;78;21397;-56
2020/12/16 12:04:11;;;;;;;15.78;9.28;;;;;;;2.98;67.46;101531.14;1784957;78;21181;-55
2020/12/16 12:06:38;;;;;;;16.97;8.65;;;;;;;3.10;67.24;101537.72;1790509;78;21587;-56
2020/12/16 12:09:08;;;;;;;12.18;7.10;;;;;;;3.15;67.09;101534.06;1787645;78;21204;-54
2020/12/16 12:11:40;;;;;;;15.48;9.28;;;;;;;3.18;67.15;101534.86;1786106;79;21177;-53